Time;durP1;ratioP1;P1;durP2;ratioP2;P2;SDS_P1;SDS_P2;PMS_P1;PMS_P2;Temp;Humidity;BMP_temperature;BMP_pressure;BME280_temperature;BME280_humidity;BME280_pressure;Samples;Min_cycle;Max_cycle;Signal;HPM_P1;HPM_P2
2022/12/05 02:55:22;;;;;;;5.18;2.90;;;;;;;-145.06;100.00;60892.56;6025799;22;20163;-91
2022/12/05 02:58:16;;;;;;;4.70;2.97;;;;;;;-145.06;100.00;60892.56;5981708;23;20091;-91
2022/12/05 03:01:52;;;;;;;6.28;3.03;;;;;;;-145.06;100.00;60892.56;5981192;23;20012;-91
2022/12/05 03:05:11;;;;;;;4.43;2.83;;;;;;;-145.06;100.00;60892.56;5869505;23;20010;-92
2022/12/05 03:10:38;;;;;;;5.55;3.15;;;;;;;-145.06;100.00;60892.56;6007996;22;20067;-92
2022/12/05 03:14:24;;;;;;;;;;;;;;;;;;;;;
2022/12/05 03:17:13;;;;;;;5.57;3.05;;;;;;;-145.06;100.00;60892.56;6008930;23;20364;-92
2022/12/05 03:23:19;;;;;;;4.60;2.78;;;;;;;-145.06;100.00;60892.56;6012610;23;20005;-92
2022/12/05 03:26:49;;;;;;;4.25;3.00;;;;;;;-145.06;100.00;60892.56;5980355;23;20008;-92
2022/12/05 07:55:00;;;;;;;;;;;;;;;;;;;;;
2022/12/05 07:58:14;;;;;;;3.78;2.20;;;;;;;-145.06;100.00;60892.56;5856099;23;20015;-92
2022/12/05 09:24:45;;;;;;;4.60;2.75;;;;;;;-145.06;100.00;60892.56;6037758;22;20019;-91
2022/12/05 09:27:27;;;;;;;;;;;;;;;-145.06;100.00;60892.56;6015597;23;20428;-91
2022/12/05 09:30:15;;;;;;;4.07;2.13;;;;;;;-145.06;100.00;60892.56;6007054;23;19904;-91
2022/12/05 09:33:51;;;;;;;3.75;2.60;;;;;;;-145.06;100.00;60892.56;6007027;23;20296;-92
2022/12/05 09:36:56;;;;;;;;;;;;;;;;;;;;;
2022/12/05 09:39:59;;;;;;;3.95;2.22;;;;;;;-145.06;100.00;60892.56;6017479;23;20009;-92
2022/12/05 09:46:38;;;;;;;4.75;2.70;;;;;;;-145.06;100.00;60892.56;6016749;23;20004;-92
2022/12/05 09:49:19;;;;;;;4.80;2.65;;;;;;;-145.06;100.00;60892.56;6007754;23;20036;-91
2022/12/05 09:52:02;;;;;;;4.53;2.45;;;;;;;-145.06;100.00;60892.56;6007002;23;20060;-92
2022/12/05 09:54:54;;;;;;;4.20;3.10;;;;;;;-145.06;100.00;60892.56;6006783;23;20032;-91
2022/12/05 09:58:30;;;;;;;;;;;;;;;;;;;;;
2022/12/05 10:01:47;;;;;;;3.80;2.65;;;;;;;-145.06;100.00;60892.56;6003556;23;20008;-92
2022/12/05 10:04:59;;;;;;;3.80;2.80;;;;;;;-145.06;100.00;60892.56;6006449;23;20027;-92
2022/12/05 10:07:48;;;;;;;4.28;2.80;;;;;;;-145.06;100.00;60892.56;6005767;23;20004;-91
2022/12/05 10:11:03;;;;;;;4.13;2.53;;;;;;;-145.06;100.00;60892.56;6006390;23;20016;-92
2022/12/05 10:14:17;;;;;;;5.70;2.63;;;;;;;-145.06;100.00;60892.56;6006601;23;20591;-91
2022/12/05 10:17:07;;;;;;;3.80;2.97;;;;;;;-145.06;100.00;60892.56;5955820;23;20004;-92
2022/12/05 10:19:50;;;;;;;3.97;2.50;;;;;;;-145.06;100.00;60892.56;6006019;23;20008;-91
2022/12/05 10:22:51;;;;;;;4.22;2.60;;;;;;;-145.06;100.00;60892.56;6006704;23;20004;-92
2022/12/05 10:25:35;;;;;;;5.00;2.65;;;;;;;-145.06;100.00;60892.56;6006871;23;20299;-91
2022/12/05 10:28:26;;;;;;;4.32;2.47;;;;;;;-145.06;100.00;60892.56;6006350;23;20032;-90
2022/12/05 10:31:09;;;;;;;4.30;2.95;;;;;;;-145.06;100.00;60892.56;6006947;23;20243;-91
2022/12/05 10:34:00;;;;;;;4.78;3.22;;;;;;;-145.06;100.00;60892.56;6006094;23;20083;-91
2022/12/05 10:36:50;;;;;;;5.00;3.13;;;;;;;-145.06;100.00;60892.56;6006654;23;20036;-91
2022/12/05 10:39:31;;;;;;;4.88;3.38;;;;;;;-145.06;100.00;60892.56;6006611;23;20013;-92
2022/12/05 10:42:23;;;;;;;4.72;3.20;;;;;;;-145.06;100.00;60892.56;6006307;23;20008;-91
2022/12/05 10:45:07;;;;;;;5.78;3.45;;;;;;;-145.06;100.00;60892.56;6007057;23;20000;-92
2022/12/05 10:47:47;;;;;;;4.35;3.38;;;;;;;-145.06;100.00;60892.56;6006580;23;20131;-92
2022/12/05 10:50:31;;;;;;;5.22;3.30;;;;;;;-145.06;100.00;60892.56;6006418;23;20012;-92
2022/12/05 10:53:39;;;;;;;4.47;3.10;;;;;;;-145.06;100.00;60892.56;6017352;23;20001;-91
2022/12/05 10:56:46;;;;;;;5.05;2.97;;;;;;;-145.06;100.00;60892.56;6006289;23;20004;-90
2022/12/05 10:59:45;;;;;;;3.53;2.70;;;;;;;-145.06;100.00;60892.56;6006122;23;20012;-91
2022/12/05 11:02:32;;;;;;;3.85;3.03;;;;;;;-145.06;100.00;60892.56;6006425;23;20317;-92
2022/12/05 11:05:11;;;;;;;4.15;3.03;;;;;;;-145.06;100.00;60892.56;6005416;23;20005;-91
2022/12/05 11:08:00;;;;;;;3.97;3.00;;;;;;;-145.06;100.00;60892.56;6005963;23;20296;-92
2022/12/05 11:10:42;;;;;;;4.15;2.83;;;;;;;-145.06;100.00;60892.56;6006138;23;20061;-91
2022/12/05 11:13:27;;;;;;;4.38;3.13;;;;;;;-145.06;100.00;60892.56;6006449;23;20005;-92
2022/12/05 11:16:23;;;;;;;4.28;2.75;;;;;;;-145.06;100.00;60892.56;6006217;23;20008;-90
2022/12/05 11:19:36;;;;;;;4.05;3.10;;;;;;;-145.06;100.00;60892.56;6005806;23;20005;-92
2022/12/05 11:22:16;;;;;;;3.58;2.75;;;;;;;-145.06;100.00;60892.56;6005892;23;20005;-91
2022/12/05 11:24:55;;;;;;;3.85;2.83;;;;;;;-145.06;100.00;60892.56;6006078;23;20013;-90
2022/12/05 11:27:41;;;;;;;5.37;3.03;;;;;;;-145.06;100.00;60892.56;6005146;23;20415;-92
2022/12/05 11:30:27;;;;;;;4.47;2.92;;;;;;;-145.06;100.00;60892.56;6007250;23;20028;-92
2022/12/05 11:33:18;;;;;;;4.85;2.85;;;;;;;-145.06;100.00;60892.56;6005789;23;20008;-92
2022/12/05 11:36:20;;;;;;;3.20;2.45;;;;;;;-145.06;100.00;60892.56;6006486;23;20558;-91
2022/12/05 11:38:59;;;;;;;3.75;2.78;;;;;;;-145.06;100.00;60892.56;6004983;23;20004;-93
2022/12/05 11:42:09;;;;;;;4.07;2.90;;;;;;;-145.06;100.00;60892.56;6005508;23;20008;-90
2022/12/05 11:45:37;;;;;;;4.88;2.92;;;;;;;-145.06;100.00;60892.56;6006156;23;20001;-91
2022/12/05 11:49:03;;;;;;;4.60;3.10;;;;;;;-145.06;100.00;60892.56;5994709;23;20000;-93
2022/12/05 11:52:08;;;;;;;4.78;3.05;;;;;;;-145.06;100.00;60892.56;5897452;23;20006;-91
2022/12/05 11:55:13;;;;;;;3.47;2.40;;;;;;;-145.06;100.00;60892.56;5928620;23;20024;-92
2022/12/05 11:58:17;;;;;;;4.15;2.90;;;;;;;-145.06;100.00;60892.56;6005936;23;20305;-92
2022/12/05 12:01:20;;;;;;;3.38;2.50;;;;;;;-145.06;100.00;60892.56;6005882;23;20008;-91
2022/12/05 12:04:21;;;;;;;;;;;;;;;;;;;;;
2022/12/05 12:07:19;;;;;;;4.32;3.22;;;;;;;-145.06;100.00;60892.56;6016654;23;20008;-93
2022/12/05 12:10:18;;;;;;;5.85;3.50;;;;;;;-145.06;100.00;60892.56;6005014;23;20000;-91
2022/12/05 12:13:44;;;;;;;5.13;3.28;;;;;;;-145.06;100.00;60892.56;6005873;23;20008;-92
2022/12/05 12:17:15;;;;;;;;;;;;;;;;;;;;;
2022/12/05 12:20:15;;;;;;;3.75;3.08;;;;;;;-145.06;100.00;60892.56;6016750;23;20060;-93
2022/12/05 12:23:31;;;;;;;4.32;3.10;;;;;;;-145.06;100.00;60892.56;6005497;23;20012;-92
2022/12/05 12:26:15;;;;;;;4.28;2.50;;;;;;;-145.06;100.00;60892.56;6005548;23;20008;-91
2022/12/05 12:29:43;;;;;;;5.00;3.30;;;;;;;-145.06;100.00;60892.56;6005437;23;20005;-91
2022/12/05 12:32:42;;;;;;;5.28;3.20;;;;;;;-145.06;100.00;60892.56;6007094;23;20013;-93
2022/12/05 12:35:38;;;;;;;;;;;;;;;-145.06;100.00;60892.56;6006058;23;20000;-92
2022/12/05 12:38:41;;;;;;;4.32;3.17;;;;;;;-145.06;100.00;60892.56;6005435;23;19911;-93
2022/12/05 12:41:39;;;;;;;4.18;3.13;;;;;;;-145.06;100.00;60892.56;6005907;23;20005;-91
2022/12/05 12:44:56;;;;;;;5.70;3.10;;;;;;;-145.06;100.00;60892.56;6005635;23;20005;-91
2022/12/05 12:48:07;;;;;;;4.80;3.28;;;;;;;-145.06;100.00;60892.56;6005959;23;20005;-91
2022/12/05 12:50:51;;;;;;;5.53;3.35;;;;;;;-145.06;100.00;60892.56;6005541;23;20005;-91
2022/12/05 12:54:04;;;;;;;5.07;3.33;;;;;;;-145.06;100.00;60892.56;6005022;23;20308;-93
2022/12/05 12:57:22;;;;;;;4.82;3.22;;;;;;;-145.06;100.00;60892.56;6005117;23;20008;-92
2022/12/05 13:00:20;;;;;;;5.55;3.53;;;;;;;-145.06;100.00;60892.56;5987753;23;20013;-92
2022/12/05 13:08:02;;;;;;;6.35;3.53;;;;;;;-145.06;100.00;60892.56;5963686;22;20040;-91
2022/12/05 13:10:45;;;;;;;6.05;3.67;;;;;;;-145.06;100.00;60892.56;5906960;23;20018;-91
2022/12/05 13:13:56;;;;;;;6.45;3.80;;;;;;;-145.06;100.00;60892.56;6005838;23;20004;-91
2022/12/05 13:16:42;;;;;;;6.97;4.07;;;;;;;-145.06;100.00;60892.56;5920958;23;20012;-91
2022/12/05 13:19:44;;;;;;;5.95;4.00;;;;;;;-145.06;100.00;60892.56;6005900;23;20004;-91
2022/12/05 13:22:36;;;;;;;6.82;4.18;;;;;;;-145.06;100.00;60892.56;6007192;23;20012;-90
2022/12/05 13:25:56;;;;;;;6.82;4.35;;;;;;;-145.06;100.00;60892.56;6007028;23;20042;-91
2022/12/05 13:28:56;;;;;;;5.72;3.80;;;;;;;-145.06;100.00;60892.56;6008200;23;20001;-90
2022/12/05 13:31:44;;;;;;;5.53;3.95;;;;;;;-145.06;100.00;60892.56;6007208;23;20000;-92
2022/12/05 13:34:29;;;;;;;6.05;3.53;;;;;;;-145.06;100.00;60892.56;6006602;23;20000;-92
2022/12/05 13:44:03;;;;;;;6.28;3.58;;;;;;;-145.06;100.00;60892.56;6019309;23;20419;-92
2022/12/05 13:47:08;;;;;;;4.47;3.15;;;;;;;-145.06;100.00;60892.56;6008011;23;20309;-91
2022/12/05 13:50:40;;;;;;;5.80;3.70;;;;;;;-145.06;100.00;60892.56;6007269;23;20005;-92
2022/12/05 13:53:34;;;;;;;6.35;3.88;;;;;;;-145.06;100.00;60892.56;6006661;23;20083;-91
2022/12/05 13:56:18;;;;;;;6.05;3.83;;;;;;;-145.06;100.00;60892.56;6006748;23;20005;-92
2022/12/05 13:58:58;;;;;;;6.50;3.85;;;;;;;-145.06;100.00;60892.56;6006901;23;20000;-92
2022/12/05 14:02:50;;;;;;;6.15;4.35;;;;;;;-145.06;100.00;60892.56;6007082;23;20254;-91
2022/12/05 14:05:44;;;;;;;5.60;3.72;;;;;;;-145.06;100.00;60892.56;5914389;23;20005;-91
2022/12/05 14:08:29;;;;;;;7.03;3.75;;;;;;;-145.06;100.00;60892.56;6005772;23;20004;-92
2022/12/05 14:11:13;;;;;;;5.28;3.65;;;;;;;-145.06;100.00;60892.56;5985044;23;20004;-91
2022/12/05 14:13:59;;;;;;;6.20;3.88;;;;;;;-145.06;100.00;60892.56;5985547;23;20522;-91
2022/12/05 14:16:43;;;;;;;5.20;3.58;;;;;;;-145.06;100.00;60892.56;5985372;23;20080;-91
2022/12/05 14:19:37;;;;;;;4.93;3.28;;;;;;;-145.06;100.00;60892.56;5984965;23;20004;-91
2022/12/05 14:23:08;;;;;;;4.68;3.40;;;;;;;-145.06;100.00;60892.56;5984614;23;20008;-91
2022/12/05 14:26:09;;;;;;;5.15;3.33;;;;;;;-145.06;100.00;60892.56;5945346;23;20005;-92
2022/12/05 14:29:13;;;;;;;5.80;3.53;;;;;;;-145.06;100.00;60892.56;5983511;23;20175;-91
2022/12/05 14:32:22;;;;;;;6.40;4.28;;;;;;;-145.06;100.00;60892.56;5983427;23;20316;-92
2022/12/05 14:42:34;;;;;;;;;;;;;;;;;;;;;
2022/12/05 14:45:46;;;;;;;5.03;3.30;;;;;;;-145.06;100.00;60892.56;5943256;23;20043;-91
2022/12/05 17:06:38;;;;;;;;;;;;;;;;;;;;;
2022/12/05 17:10:32;;;;;;;;;;;;;;;;;;;;;
2022/12/05 17:13:14;;;;;;;4.18;3.05;;;;;;;-145.06;100.00;60892.56;5781511;24;20046;-93
2022/12/05 17:16:28;;;;;;;3.30;2.43;;;;;;;-145.06;100.00;60892.56;5761426;23;20090;-92
2022/12/05 17:20:04;;;;;;;3.20;2.40;;;;;;;-145.06;100.00;60892.56;5728710;24;20250;-93
2022/12/05 17:22:56;;;;;;;2.58;2.20;;;;;;;-145.06;100.00;60892.56;5809184;23;20073;-92
2022/12/05 17:26:05;;;;;;;2.47;1.85;;;;;;;-145.06;100.00;60892.56;5872522;23;20034;-93
2022/12/05 17:28:50;;;;;;;2.47;2.08;;;;;;;-145.06;100.00;60892.56;5869282;23;20307;-91
2022/12/05 17:31:29;;;;;;;2.80;2.00;;;;;;;-145.06;100.00;60892.56;5868184;23;20034;-90
2022/12/05 17:34:32;;;;;;;2.65;1.88;;;;;;;-145.06;100.00;60892.56;6000933;23;20008;-91
2022/12/05 17:37:11;;;;;;;2.65;1.98;;;;;;;-145.06;100.00;60892.56;6014235;23;20004;-91
2022/12/05 17:39:56;;;;;;;2.95;2.05;;;;;;;-145.06;100.00;60892.56;6014081;23;20003;-92
2022/12/05 17:42:40;;;;;;;3.67;2.80;;;;;;;-145.06;100.00;60892.56;6011836;23;20008;-92
2022/12/05 17:45:19;;;;;;;3.38;2.58;;;;;;;-145.06;100.00;60892.56;6017004;23;20068;-91
2022/12/05 17:47:58;;;;;;;3.65;2.75;;;;;;;-145.06;100.00;60892.56;6015266;23;20004;-94
2022/12/05 17:50:57;;;;;;;4.00;3.00;;;;;;;-145.06;100.00;60892.56;6011714;23;20004;-92
2022/12/05 17:53:37;;;;;;;4.13;2.70;;;;;;;-145.06;100.00;60892.56;6014813;23;20023;-93
2022/12/05 17:56:19;;;;;;;;;;;;;;;-145.06;100.00;60892.56;6015656;22;20311;-92
2022/12/05 17:59:40;;;;;;;2.53;1.92;;;;;;;-145.06;100.00;60892.56;6012296;23;20219;-93
2022/12/05 18:09:02;;;;;;;2.55;2.10;;;;;;;-145.06;100.00;60892.56;6026738;22;20016;-93
2022/12/05 18:11:41;;;;;;;3.35;2.15;;;;;;;-145.06;100.00;60892.56;6035560;23;20027;-91
2022/12/05 18:14:27;;;;;;;2.10;1.90;;;;;;;-145.06;100.00;60892.56;6037409;23;20008;-91
2022/12/05 18:17:06;;;;;;;1.90;1.60;;;;;;;-145.06;100.00;60892.56;6034304;22;20539;-92
2022/12/05 18:19:48;;;;;;;2.17;1.90;;;;;;;-145.06;100.00;60892.56;6034630;23;20012;-92
2022/12/05 18:22:27;;;;;;;2.22;1.85;;;;;;;-145.06;100.00;60892.56;6036249;23;20003;-91
2022/12/05 18:25:10;;;;;;;2.05;1.63;;;;;;;-145.06;100.00;60892.56;6033711;23;20004;-91
2022/12/05 18:28:13;;;;;;;;;;;;;;;;;;;;;
2022/12/05 18:31:04;;;;;;;2.60;1.88;;;;;;;-145.06;100.00;60892.56;6047686;23;20004;-92
2022/12/05 18:34:28;;;;;;;2.70;1.52;;;;;;;-145.06;100.00;60892.56;6012840;23;20004;-92
2022/12/05 18:37:17;;;;;;;2.30;1.90;;;;;;;-145.06;100.00;60892.56;6013918;23;20008;-93
2022/12/05 18:39:56;;;;;;;2.45;1.98;;;;;;;-145.06;100.00;60892.56;6012733;23;20004;-89
2022/12/05 18:42:38;;;;;;;2.45;1.92;;;;;;;-145.06;100.00;60892.56;6011587;23;20308;-92
2022/12/05 18:46:05;;;;;;;3.60;2.17;;;;;;;-145.06;100.00;60892.56;6013001;23;20004;-94
2022/12/05 18:48:44;;;;;;;2.28;2.03;;;;;;;-145.06;100.00;60892.56;6009210;23;20175;-90
2022/12/05 18:51:24;;;;;;;2.20;1.88;;;;;;;-145.06;100.00;60892.56;6009741;23;20141;-88
2022/12/05 18:54:02;;;;;;;3.03;1.97;;;;;;;-145.06;100.00;60892.56;6021428;23;20020;-90
2022/12/05 18:56:44;;;;;;;2.00;1.80;;;;;;;-145.06;100.00;60892.56;6023317;23;20239;-89
2022/12/05 18:59:50;;;;;;;3.08;2.05;;;;;;;-145.06;100.00;60892.56;6010670;23;20028;-92
2022/12/05 19:02:58;;;;;;;2.72;2.10;;;;;;;-145.06;100.00;60892.56;6015621;23;20316;-94
2022/12/05 19:06:11;;;;;;;2.63;2.00;;;;;;;-145.06;100.00;60892.56;6016767;23;20004;-91
2022/12/05 19:09:15;;;;;;;3.08;2.00;;;;;;;-145.06;100.00;60892.56;6014363;23;20000;-92
2022/12/05 19:11:57;;;;;;;2.25;1.83;;;;;;;-145.06;100.00;60892.56;6012012;23;20004;-93
2022/12/05 19:14:53;;;;;;;2.55;1.90;;;;;;;-145.06;100.00;60892.56;6014953;23;20012;-92
2022/12/05 19:17:33;;;;;;;2.58;2.03;;;;;;;-145.06;100.00;60892.56;6007609;23;20008;-89
2022/12/05 19:20:48;;;;;;;2.40;1.80;;;;;;;-145.06;100.00;60892.56;6011786;23;20079;-94
2022/12/05 19:27:32;;;;;;;2.95;1.95;;;;;;;-145.06;100.00;60892.56;6046638;22;20011;-93
2022/12/05 19:34:38;;;;;;;2.60;1.92;;;;;;;-145.06;100.00;60892.56;5928699;23;20009;-91
2022/12/05 19:37:28;;;;;;;2.55;2.20;;;;;;;-145.06;100.00;60892.56;5941846;23;20012;-93
2022/12/05 19:40:13;;;;;;;2.70;2.13;;;;;;;-145.06;100.00;60892.56;6011166;23;20008;-93
2022/12/05 19:42:53;;;;;;;2.38;1.88;;;;;;;-145.06;100.00;60892.56;6013742;23;20004;-92
2022/12/05 19:45:40;;;;;;;2.95;2.33;;;;;;;-145.06;100.00;60892.56;6015514;23;20004;-93
2022/12/05 19:48:19;;;;;;;2.80;1.85;;;;;;;-145.06;100.00;60892.56;6014103;23;20000;-91
2022/12/05 19:51:25;;;;;;;2.78;2.05;;;;;;;-145.06;100.00;60892.56;6015180;23;20008;-92
2022/12/05 19:54:06;;;;;;;2.20;1.67;;;;;;;-145.06;100.00;60892.56;5971619;23;20175;-89
2022/12/05 19:56:44;;;;;;;;;;;;;;;-145.06;100.00;60892.56;6010370;23;20007;-91
2022/12/05 19:59:23;;;;;;;2.28;1.67;;;;;;;-145.06;100.00;60892.56;6009951;23;19912;-90
2022/12/05 20:02:02;;;;;;;3.07;2.00;;;;;;;-145.06;100.00;60892.56;6011326;23;20008;-90
2022/12/05 20:04:42;;;;;;;2.85;1.60;;;;;;;-145.06;100.00;60892.56;6011160;23;20008;-90
2022/12/05 20:07:28;;;;;;;2.45;1.75;;;;;;;-145.06;100.00;60892.56;6014560;23;20141;-92
2022/12/05 20:10:08;;;;;;;2.50;1.88;;;;;;;-145.06;100.00;60892.56;6013549;23;20004;-93
2022/12/05 20:12:58;;;;;;;2.40;1.70;;;;;;;-145.06;100.00;60892.56;6013555;23;20375;-93
2022/12/05 20:15:38;;;;;;;2.25;1.70;;;;;;;-145.06;100.00;60892.56;6015767;23;20000;-92
2022/12/05 20:19:20;;;;;;;;;;;;;;;;;;;;;
2022/12/05 20:21:58;;;;;;;1.55;1.25;;;;;;;-145.06;100.00;60892.56;5843384;23;20003;-92
2022/12/05 20:24:52;;;;;;;2.10;1.60;;;;;;;-145.06;100.00;60892.56;5921085;23;20004;-91
2022/12/05 20:27:45;;;;;;;1.73;1.42;;;;;;;-145.06;100.00;60892.56;6010503;23;20000;-92
2022/12/05 20:34:34;;;;;;;;;;;;;;;;;;;;;
2022/12/05 20:37:34;;;;;;;;;;;;;;;;;;;;;
2022/12/05 20:41:01;;;;;;;1.88;1.42;;;;;;;-145.06;100.00;60892.56;6049096;23;19908;-93
2022/12/05 21:33:37;;;;;;;;;;;;;;;;;;;;;
2022/12/05 22:27:43;;;;;;;;;;;;;;;;;;;;;
2022/12/05 22:42:32;;;;;;;;;;;;;;;;;;;;;
